Time;durP1;ratioP1;P1;durP2;ratioP2;P2;SDS_P1;SDS_P2;PMS_P1;PMS_P2;Temp;Humidity;BMP_temperature;BMP_pressure;BME280_temperature;BME280_humidity;BME280_pressure;Samples;Min_cycle;Max_cycle;Signal;HPM_P1;HPM_P2
2022/08/26 00:01:32;;;;;;;16.37;5.77;;;22.10;99.90;;;;;;4322380;28;10000662;-76
2022/08/26 00:03:57;;;;;;;14.73;6.32;;;22.10;99.90;;;;;;5022337;28;20021;-76
2022/08/26 00:06:25;;;;;;;13.18;6.35;;;22.10;99.90;;;;;;5023823;28;20073;-76
2022/08/26 00:08:50;;;;;;;12.10;6.35;;;22.00;99.90;;;;;;5023124;28;20033;-76
2022/08/26 00:11:17;;;;;;;12.75;6.47;;;22.00;99.90;;;;;;5017975;28;20483;-76
2022/08/26 00:13:42;;;;;;;14.75;6.28;;;22.00;99.90;;;;;;5021716;28;20116;-76
2022/08/26 00:16:09;;;;;;;17.02;7.00;;;22.00;99.90;;;;;;5022979;28;20104;-76
2022/08/26 00:18:35;;;;;;;13.73;6.57;;;22.00;99.90;;;;;;5011353;28;20222;-76
2022/08/26 00:21:01;;;;;;;11.68;6.57;;;22.00;99.90;;;;;;5008963;28;20906;-76
2022/08/26 00:23:26;;;;;;;13.20;6.40;;;22.00;99.90;;;;;;5023965;28;20017;-76
2022/08/26 00:25:52;;;;;;;16.38;7.32;;;21.90;99.90;;;;;;5023440;28;20609;-76
2022/08/26 00:28:19;;;;;;;11.85;6.63;;;21.90;99.90;;;;;;5010150;28;20034;-76
2022/08/26 00:30:48;;;;;;;18.10;6.38;;;21.80;99.90;;;;;;5014001;28;20033;-76
2022/08/26 00:33:16;;;;;;;17.88;6.78;;;21.80;99.90;;;;;;5024833;28;20033;-76
2022/08/26 00:35:42;;;;;;;13.20;6.78;;;21.70;99.90;;;;;;5023783;28;20052;-76
2022/08/26 00:38:08;;;;;;;15.02;6.65;;;21.70;99.90;;;;;;5025604;28;20032;-76
2022/08/26 00:40:38;;;;;;;17.42;6.72;;;21.70;99.90;;;;;;5014644;28;20101;-76
2022/08/26 00:43:05;;;;;;;13.55;6.78;;;21.70;99.90;;;;;;5022099;28;20117;-76
2022/08/26 00:45:41;;;;;;;13.18;6.38;;;21.70;99.90;;;;;;5026047;28;20060;-76
2022/08/26 00:48:08;;;;;;;10.43;6.95;;;21.60;99.90;;;;;;5028488;28;20025;-76
2022/08/26 00:50:38;;;;;;;12.32;6.40;;;21.60;99.90;;;;;;5024801;28;20088;-76
2022/08/26 00:53:20;;;;;;;10.93;6.63;;;21.60;99.90;;;;;;5022590;28;20535;-75
2022/08/26 00:55:48;;;;;;;10.70;6.32;;;21.60;99.90;;;;;;5016595;28;20088;-76
2022/08/26 00:58:14;;;;;;;12.05;6.53;;;21.50;99.90;;;;;;5009865;28;20104;-76
2022/08/26 01:00:39;;;;;;;14.82;6.70;;;21.50;99.90;;;;;;5016788;28;20037;-76
2022/08/26 01:03:05;;;;;;;16.92;6.68;;;21.50;99.90;;;;;;5009714;28;20052;-76
2022/08/26 01:05:31;;;;;;;12.50;6.43;;;21.50;99.90;;;;;;5029422;28;20029;-76
2022/08/26 01:07:57;;;;;;;18.08;7.20;;;21.50;99.90;;;;;;5024983;28;20033;-76
2022/08/26 01:10:30;;;;;;;17.55;6.90;;;21.40;99.90;;;;;;5019427;28;20017;-76
2022/08/26 01:12:59;;;;;;;18.23;6.40;;;21.40;99.90;;;;;;5017726;28;20034;-75
2022/08/26 01:15:34;;;;;;;11.85;6.32;;;21.40;99.90;;;;;;5021876;28;20029;-76
2022/08/26 01:18:04;;;;;;;12.75;6.63;;;21.40;99.90;;;;;;5023278;28;20113;-76
2022/08/26 01:20:49;;;;;;;10.07;7.00;;;21.30;99.90;;;;;;5016581;28;20049;-75
2022/08/26 01:23:15;;;;;;;13.70;7.28;;;21.30;99.90;;;;;;5009398;28;20030;-76
2022/08/26 01:25:44;;;;;;;10.23;6.22;;;21.20;99.90;;;;;;5024682;28;20063;-76
2022/08/26 01:28:15;;;;;;;11.93;6.10;;;21.20;99.90;;;;;;5024565;28;20079;-76
2022/08/26 01:30:43;;;;;;;11.15;6.97;;;21.10;99.90;;;;;;5016613;28;20080;-76
2022/08/26 01:33:14;;;;;;;9.57;6.75;;;21.10;99.90;;;;;;5023229;28;20033;-76
2022/08/26 01:35:41;;;;;;;13.27;6.72;;;21.10;99.90;;;;;;5021949;28;20046;-76
2022/08/26 01:38:07;;;;;;;15.82;6.72;;;21.00;99.90;;;;;;5026833;28;20741;-76
2022/08/26 01:40:37;;;;;;;11.63;7.15;;;21.00;99.90;;;;;;5021616;28;20037;-76
2022/08/26 01:43:06;;;;;;;13.82;6.93;;;21.00;99.90;;;;;;5019658;28;20063;-76
2022/08/26 01:45:34;;;;;;;13.13;6.85;;;21.00;99.90;;;;;;5023811;28;20469;-76
2022/08/26 01:48:03;;;;;;;17.67;7.00;;;21.00;99.90;;;;;;5017316;28;20033;-76
2022/08/26 01:50:32;;;;;;;17.40;7.00;;;21.00;99.90;;;;;;5025264;28;20116;-75
2022/08/26 01:53:00;;;;;;;14.00;7.25;;;21.00;99.90;;;;;;5017117;28;20464;-75
2022/08/26 01:55:27;;;;;;;14.35;7.22;;;21.00;99.90;;;;;;5017293;28;20033;-76
2022/08/26 01:57:56;;;;;;;13.43;7.05;;;21.00;99.90;;;;;;5020761;28;20519;-76
2022/08/26 02:00:23;;;;;;;11.90;6.75;;;21.00;99.90;;;;;;5022841;28;20120;-76
2022/08/26 02:03:15;;;;;;;11.88;6.60;;;20.90;99.90;;;;;;5019127;28;20354;-75
2022/08/26 02:05:40;;;;;;;14.38;6.55;;;20.90;99.90;;;;;;5009019;28;20034;-76
2022/08/26 02:08:06;;;;;;;15.15;6.90;;;20.90;99.90;;;;;;5024794;28;20032;-75
2022/08/26 02:10:32;;;;;;;12.57;6.60;;;20.90;99.90;;;;;;5024322;28;20037;-76
2022/08/26 02:12:58;;;;;;;11.43;6.88;;;20.90;99.90;;;;;;5015825;28;20022;-77
2022/08/26 02:15:24;;;;;;;20.42;7.25;;;20.90;99.90;;;;;;5023205;28;20048;-76
2022/08/26 02:17:50;;;;;;;13.02;6.78;;;20.80;99.90;;;;;;5022965;28;20016;-76
2022/08/26 02:20:19;;;;;;;13.18;7.15;;;20.80;99.90;;;;;;5019054;28;20041;-76
2022/08/26 02:22:45;;;;;;;14.75;7.30;;;20.80;99.90;;;;;;5013653;28;20398;-76
2022/08/26 02:25:37;;;;;;;15.63;7.07;;;20.70;99.90;;;;;;5018214;28;20021;-76
2022/08/26 02:28:03;;;;;;;15.65;7.32;;;20.70;99.90;;;;;;4998744;28;20042;-76
2022/08/26 02:30:31;;;;;;;13.27;7.55;;;20.70;99.90;;;;;;5008832;28;20140;-76
2022/08/26 02:32:58;;;;;;;13.93;7.57;;;20.70;99.90;;;;;;5011140;28;20045;-76
2022/08/26 02:35:24;;;;;;;13.52;7.45;;;20.60;99.90;;;;;;5007610;28;20621;-76
2022/08/26 02:37:51;;;;;;;17.92;8.07;;;20.60;99.90;;;;;;5015009;28;20100;-76
2022/08/26 02:40:24;;;;;;;11.45;7.47;;;20.60;99.90;;;;;;5030786;28;20033;-76
2022/08/26 02:42:50;;;;;;;16.17;7.40;;;20.60;99.90;;;;;;5013856;28;20490;-77
2022/08/26 02:45:17;;;;;;;12.23;7.65;;;20.60;99.90;;;;;;5006886;28;20029;-76
2022/08/26 02:48:11;;;;;;;11.93;6.78;;;20.50;99.90;;;;;;5006991;28;20034;-76
2022/08/26 02:50:38;;;;;;;13.30;7.10;;;20.50;99.90;;;;;;5016143;28;20489;-76
2022/08/26 02:53:04;;;;;;;11.20;6.85;;;20.40;99.90;;;;;;5022117;28;20041;-76
2022/08/26 02:55:30;;;;;;;13.10;7.25;;;20.40;99.90;;;;;;5016864;28;20034;-76
2022/08/26 02:57:56;;;;;;;11.65;7.10;;;20.40;99.90;;;;;;5021268;28;20124;-76
2022/08/26 03:00:22;;;;;;;14.05;7.82;;;20.30;99.90;;;;;;5020646;28;20437;-76
2022/08/26 03:02:49;;;;;;;13.95;7.45;;;20.30;99.90;;;;;;5019454;28;20112;-76
2022/08/26 03:05:16;;;;;;;12.32;7.20;;;20.30;99.90;;;;;;5025367;28;20106;-76
2022/08/26 03:07:42;;;;;;;10.20;6.70;;;20.30;99.90;;;;;;5024340;28;20036;-76
2022/08/26 03:10:11;;;;;;;12.82;7.25;;;20.30;99.90;;;;;;5022980;28;20018;-76
2022/08/26 03:12:37;;;;;;;16.08;8.15;;;20.20;99.90;;;;;;5018967;28;20025;-76
2022/08/26 03:15:04;;;;;;;17.48;8.30;;;20.30;99.90;;;;;;5021366;28;20032;-76
2022/08/26 03:17:30;;;;;;;15.02;7.80;;;20.30;99.90;;;;;;5021005;28;20037;-76
2022/08/26 03:19:55;;;;;;;13.82;7.85;;;20.40;99.90;;;;;;5020520;28;20021;-77
2022/08/26 03:22:21;;;;;;;18.10;8.02;;;20.40;99.90;;;;;;5014945;28;20501;-76
2022/08/26 03:24:47;;;;;;;18.83;8.60;;;20.40;99.90;;;;;;5025438;28;20030;-76
2022/08/26 03:27:12;;;;;;;13.27;8.10;;;20.40;99.90;;;;;;5025956;28;20393;-76
2022/08/26 03:32:22;;;;;;;11.93;7.78;;;20.30;99.90;;;;;;5018281;28;20126;-76
2022/08/26 03:34:48;;;;;;;19.23;9.38;;;20.20;99.90;;;;;;5018144;28;20080;-76
2022/08/26 03:37:13;;;;;;;18.98;9.15;;;20.10;99.90;;;;;;5014910;28;20034;-76
2022/08/26 03:39:40;;;;;;;16.25;7.88;;;20.10;99.90;;;;;;5014140;28;20037;-76
2022/08/26 03:42:05;;;;;;;15.52;8.23;;;20.00;99.90;;;;;;5017728;28;20477;-76
2022/08/26 03:44:31;;;;;;;15.80;8.00;;;19.90;99.90;;;;;;5019305;28;20062;-76
2022/08/26 03:46:57;;;;;;;15.30;8.50;;;19.80;99.90;;;;;;5012039;28;20026;-76
2022/08/26 03:49:22;;;;;;;15.02;8.98;;;19.80;99.90;;;;;;5024337;28;20044;-76
2022/08/26 03:51:49;;;;;;;17.75;9.40;;;19.70;99.90;;;;;;5018169;28;20048;-76
2022/08/26 03:54:14;;;;;;;14.13;8.55;;;19.60;99.90;;;;;;5013465;28;20470;-76
2022/08/26 03:56:40;;;;;;;16.55;8.80;;;19.50;99.90;;;;;;5020074;28;20014;-76
2022/08/26 03:59:06;;;;;;;12.20;8.50;;;19.50;99.90;;;;;;5019361;28;20069;-76
2022/08/26 04:01:31;;;;;;;12.65;9.15;;;19.50;99.90;;;;;;5018526;28;20044;-76
2022/08/26 04:03:57;;;;;;;16.15;9.57;;;19.40;99.90;;;;;;5015765;28;20050;-76
2022/08/26 04:06:42;;;;;;;19.40;9.65;;;19.40;99.90;;;;;;5026644;28;20029;-76
2022/08/26 04:09:11;;;;;;;26.90;10.18;;;19.40;99.90;;;;;;5026453;28;20624;-76
2022/08/26 04:11:38;;;;;;;21.15;10.00;;;19.30;99.90;;;;;;5014910;28;20046;-76
2022/08/26 04:14:07;;;;;;;15.23;9.68;;;19.20;99.90;;;;;;5022941;28;20032;-76
2022/08/26 04:16:33;;;;;;;14.30;9.43;;;19.20;99.90;;;;;;5023645;28;20033;-76
2022/08/26 04:18:58;;;;;;;13.18;9.02;;;19.10;99.90;;;;;;5028468;28;20025;-76
2022/08/26 04:21:25;;;;;;;13.02;8.82;;;19.10;99.90;;;;;;5025190;28;20116;-78
2022/08/26 04:23:51;;;;;;;18.92;10.07;;;19.10;99.90;;;;;;5022512;28;20477;-76
2022/08/26 04:26:19;;;;;;;12.90;8.90;;;19.10;99.90;;;;;;5010479;28;20030;-76
2022/08/26 04:28:46;;;;;;;13.75;9.60;;;19.10;99.90;;;;;;5017102;28;20025;-77
2022/08/26 04:31:13;;;;;;;12.55;9.02;;;19.10;99.90;;;;;;5028173;28;20084;-76
2022/08/26 04:33:40;;;;;;;10.07;8.50;;;19.10;99.90;;;;;;5025450;28;20061;-78
2022/08/26 04:36:06;;;;;;;13.18;8.75;;;19.10;99.90;;;;;;5029102;28;20127;-78
2022/08/26 04:38:31;;;;;;;17.17;9.57;;;19.10;99.90;;;;;;5010764;28;20482;-77
2022/08/26 04:40:57;;;;;;;13.93;8.68;;;19.10;99.90;;;;;;5015812;28;20025;-78
2022/08/26 04:43:27;;;;;;;15.52;9.50;;;19.10;99.90;;;;;;5010719;28;20057;-77
2022/08/26 04:45:53;;;;;;;15.63;9.65;;;19.10;99.90;;;;;;5012429;28;20112;-78
2022/08/26 04:48:19;;;;;;;12.50;8.57;;;19.10;99.90;;;;;;5009409;28;20478;-78
2022/08/26 04:50:45;;;;;;;13.45;9.00;;;19.10;99.90;;;;;;5020791;28;20026;-76
2022/08/26 04:53:12;;;;;;;13.63;9.50;;;19.10;99.90;;;;;;5018062;28;20049;-76
2022/08/26 04:55:38;;;;;;;10.60;8.95;;;19.10;99.90;;;;;;5019017;28;20044;-78
2022/08/26 04:58:07;;;;;;;12.23;9.20;;;19.10;99.90;;;;;;5017445;28;20037;-78
2022/08/26 05:00:33;;;;;;;16.48;9.77;;;19.10;99.90;;;;;;5021984;28;20706;-78
2022/08/26 05:02:59;;;;;;;12.52;9.50;;;19.20;99.90;;;;;;5016070;28;20108;-78
2022/08/26 05:05:25;;;;;;;13.80;9.18;;;19.20;99.90;;;;;;5027006;28;20231;-78
2022/08/26 05:07:50;;;;;;;14.80;8.70;;;19.20;99.90;;;;;;5011357;28;20402;-79
2022/08/26 05:10:16;;;;;;;12.75;9.40;;;19.20;99.90;;;;;;5034611;28;20026;-78
2022/08/26 05:12:42;;;;;;;14.43;8.90;;;19.20;99.90;;;;;;5020316;28;20056;-78
2022/08/26 05:15:09;;;;;;;16.48;9.55;;;19.20;99.90;;;;;;5021904;28;20034;-76
2022/08/26 05:17:34;;;;;;;14.10;8.77;;;19.20;99.90;;;;;;5020804;28;20029;-76
2022/08/26 05:20:00;;;;;;;13.45;8.60;;;19.30;99.90;;;;;;5019587;28;20044;-79
2022/08/26 05:22:26;;;;;;;17.17;9.50;;;19.30;99.90;;;;;;5023958;28;20029;-78
2022/08/26 05:24:52;;;;;;;16.33;9.60;;;19.30;99.90;;;;;;5021147;28;20025;-78
2022/08/26 05:27:18;;;;;;;18.52;9.90;;;19.30;99.90;;;;;;5024722;28;20132;-78
2022/08/26 05:29:43;;;;;;;16.52;9.73;;;19.40;99.90;;;;;;5020280;28;20112;-78
2022/08/26 05:32:09;;;;;;;19.17;10.57;;;19.40;99.90;;;;;;5018513;28;20045;-78
2022/08/26 05:34:36;;;;;;;20.60;10.73;;;19.50;99.90;;;;;;5010922;28;20091;-78
2022/08/26 05:37:03;;;;;;;19.20;10.50;;;19.50;99.90;;;;;;5015972;28;20580;-79
2022/08/26 05:39:31;;;;;;;25.83;11.18;;;19.40;99.90;;;;;;5017955;28;20083;-77
2022/08/26 05:41:57;;;;;;;19.75;10.73;;;19.40;99.90;;;;;;5012793;28;20037;-78
2022/08/26 05:44:23;;;;;;;13.43;9.00;;;19.30;99.90;;;;;;5015452;28;20265;-78
2022/08/26 05:46:50;;;;;;;13.45;8.88;;;19.20;99.90;;;;;;5021893;28;20563;-78
2022/08/26 05:49:16;;;;;;;20.02;10.35;;;19.20;99.90;;;;;;5015782;28;20029;-78
2022/08/26 05:51:45;;;;;;;13.90;9.93;;;19.20;99.90;;;;;;5018138;28;20430;-78
2022/08/26 05:54:11;;;;;;;27.83;11.20;;;19.20;99.90;;;;;;5023531;28;20095;-79
2022/08/26 05:56:38;;;;;;;21.02;11.38;;;19.20;99.90;;;;;;5031562;28;20265;-78
2022/08/26 05:59:04;;;;;;;15.73;10.52;;;19.20;99.90;;;;;;5025564;28;20122;-78
2022/08/26 06:01:29;;;;;;;17.35;10.00;;;19.10;99.90;;;;;;5016875;28;20057;-78
2022/08/26 06:03:58;;;;;;;14.88;9.63;;;19.10;99.90;;;;;;5021948;28;20030;-78
2022/08/26 06:06:29;;;;;;;21.10;9.98;;;19.20;99.90;;;;;;5021753;28;20033;-79
2022/08/26 06:08:57;;;;;;;16.35;10.43;;;19.20;99.90;;;;;;5025996;28;20124;-79
2022/08/26 06:11:24;;;;;;;14.13;9.82;;;19.30;99.90;;;;;;5018349;28;20038;-78
2022/08/26 06:13:55;;;;;;;18.20;10.65;;;19.30;99.90;;;;;;5007744;28;20034;-78
2022/08/26 06:16:23;;;;;;;19.15;10.60;;;19.40;99.90;;;;;;5021151;28;22752;-78
2022/08/26 06:18:50;;;;;;;18.92;10.77;;;19.40;99.90;;;;;;5020723;28;20492;-76
2022/08/26 06:21:28;;;;;;;16.77;9.93;;;19.50;99.90;;;;;;4670752;28;9999942;-75
2022/08/26 06:26:46;;;;;;;21.33;10.80;;;19.70;99.90;;;;;;5005090;28;20044;-76
2022/08/26 06:29:11;;;;;;;17.98;10.52;;;19.80;99.90;;;;;;5015466;28;20029;-75
2022/08/26 06:31:37;;;;;;;15.73;10.75;;;19.80;99.90;;;;;;5019577;28;20060;-76
2022/08/26 06:34:04;;;;;;;21.38;11.82;;;19.90;99.90;;;;;;5015806;28;20563;-75
2022/08/26 06:36:31;;;;;;;21.92;10.30;;;20.00;99.90;;;;;;5008183;28;20555;-75
2022/08/26 06:39:04;;;;;;;15.88;10.40;;;20.00;99.90;;;;;;5008328;28;20429;-76
2022/08/26 06:41:31;;;;;;;15.90;10.45;;;20.10;99.90;;;;;;5013186;28;20060;-76
2022/08/26 06:43:57;;;;;;;18.17;10.32;;;20.10;99.90;;;;;;5011901;28;20124;-75
2022/08/26 06:46:23;;;;;;;21.58;10.75;;;20.20;99.90;;;;;;5008820;28;20116;-76
2022/08/26 06:48:49;;;;;;;21.95;12.45;;;20.30;99.90;;;;;;5015565;28;20041;-76
2022/08/26 06:51:22;;;;;;;25.55;11.65;;;20.40;99.90;;;;;;5018093;28;20025;-76
2022/08/26 06:53:49;;;;;;;16.00;10.82;;;20.60;99.90;;;;;;5003392;28;20044;-76
2022/08/26 06:56:17;;;;;;;21.40;11.27;;;20.80;99.90;;;;;;5010566;28;20048;-76
2022/08/26 06:58:43;;;;;;;19.50;12.55;;;20.90;99.90;;;;;;5018765;28;20052;-76
2022/08/26 07:01:14;;;;;;;18.23;11.43;;;21.10;99.90;;;;;;5014327;28;20037;-76
2022/08/26 07:03:40;;;;;;;17.05;11.55;;;21.20;99.90;;;;;;5013887;28;20030;-76
2022/08/26 07:06:06;;;;;;;20.08;12.07;;;21.50;99.90;;;;;;5015249;28;20563;-76
2022/08/26 07:08:32;;;;;;;26.02;12.70;;;21.60;99.90;;;;;;5011426;28;20029;-77
2022/08/26 07:10:57;;;;;;;22.70;10.75;;;21.90;99.90;;;;;;5016181;28;20048;-77
2022/08/26 07:13:23;;;;;;;21.88;10.73;;;22.10;99.90;;;;;;5019022;28;20377;-76
2022/08/26 07:15:49;;;;;;;23.50;10.65;;;22.30;99.90;;;;;;5010840;28;20052;-76
2022/08/26 07:18:15;;;;;;;33.67;11.10;;;22.50;99.90;;;;;;5013073;28;20029;-76
2022/08/26 07:20:42;;;;;;;19.80;9.90;;;22.60;99.90;;;;;;5021028;28;20045;-76
2022/08/26 07:23:08;;;;;;;20.20;9.85;;;22.70;99.90;;;;;;5008415;28;20080;-77
2022/08/26 07:25:38;;;;;;;18.20;9.40;;;22.70;99.90;;;;;;5021203;28;20029;-77
2022/08/26 07:28:04;;;;;;;18.85;10.07;;;22.70;99.90;;;;;;5005668;28;20033;-76
2022/08/26 07:30:30;;;;;;;19.58;9.65;;;22.70;99.90;;;;;;5009265;28;20025;-76
2022/08/26 07:32:57;;;;;;;16.98;10.05;;;22.80;99.90;;;;;;5006760;28;20389;-77
2022/08/26 07:35:25;;;;;;;13.10;9.90;;;22.90;99.90;;;;;;5015202;28;20109;-77
2022/08/26 07:37:51;;;;;;;17.23;10.02;;;22.90;99.90;;;;;;5010620;28;20057;-77
2022/08/26 07:40:17;;;;;;;19.65;9.68;;;22.90;99.90;;;;;;5014538;28;20401;-74
2022/08/26 07:42:43;;;;;;;17.60;8.98;;;23.10;99.90;;;;;;5015111;28;20041;-74
2022/08/26 07:45:09;;;;;;;20.25;9.40;;;23.30;99.90;;;;;;5013575;28;20108;-76
2022/08/26 07:47:34;;;;;;;26.23;9.32;;;23.40;99.90;;;;;;5041544;28;20140;-77
2022/08/26 07:50:00;;;;;;;17.58;9.38;;;23.60;99.90;;;;;;5014601;28;20377;-76
2022/08/26 07:52:28;;;;;;;22.17;9.40;;;23.70;99.90;;;;;;5018192;28;20036;-76
2022/08/26 07:54:57;;;;;;;22.17;9.60;;;23.80;99.90;;;;;;5023603;28;20175;-77
2022/08/26 07:57:24;;;;;;;20.63;9.80;;;23.90;99.90;;;;;;5023200;28;20117;-76
2022/08/26 07:59:49;;;;;;;19.60;9.60;;;24.00;99.90;;;;;;5016714;28;20437;-75
2022/08/26 08:02:15;;;;;;;23.00;10.43;;;24.10;99.90;;;;;;5018477;28;20033;-73
2022/08/26 08:04:40;;;;;;;18.75;9.18;;;24.30;99.90;;;;;;5019862;28;20437;-75
2022/08/26 08:07:06;;;;;;;18.75;9.48;;;24.40;99.90;;;;;;5015590;28;20037;-75
2022/08/26 08:09:32;;;;;;;18.13;8.75;;;24.60;99.90;;;;;;5027606;28;20033;-76
2022/08/26 08:11:57;;;;;;;18.80;8.10;;;24.70;99.90;;;;;;5018466;28;20267;-75
2022/08/26 08:14:23;;;;;;;16.58;8.35;;;24.70;99.90;;;;;;5021609;28;20022;-76
2022/08/26 08:16:49;;;;;;;14.18;8.48;;;24.60;99.90;;;;;;5021331;28;20029;-76
2022/08/26 08:19:15;;;;;;;15.63;8.48;;;24.60;99.90;;;;;;5011274;28;20517;-76
2022/08/26 08:21:42;;;;;;;18.02;9.35;;;24.60;99.90;;;;;;5014679;28;20021;-76
2022/08/26 08:24:08;;;;;;;15.90;8.10;;;24.70;99.90;;;;;;5016903;28;20021;-76
2022/08/26 08:26:34;;;;;;;18.52;8.85;;;24.80;99.90;;;;;;5041054;28;20076;-77
2022/08/26 08:29:00;;;;;;;16.67;8.45;;;25.00;99.90;;;;;;5027606;28;20056;-76
2022/08/26 08:31:29;;;;;;;16.50;7.95;;;25.00;99.90;;;;;;5020111;28;20033;-77
2022/08/26 08:33:55;;;;;;;22.00;9.48;;;25.10;99.90;;;;;;5017449;28;20021;-77
2022/08/26 08:36:21;;;;;;;19.10;8.32;;;25.20;99.90;;;;;;5020368;28;20404;-77
2022/08/26 08:38:47;;;;;;;19.33;8.05;;;25.20;99.90;;;;;;5022368;28;20223;-77
2022/08/26 08:41:36;;;;;;;26.00;8.63;;;25.40;99.90;;;;;;5021771;28;20466;-76
2022/08/26 08:44:01;;;;;;;24.27;8.23;;;25.50;99.90;;;;;;5013717;28;20049;-76
2022/08/26 08:46:28;;;;;;;29.70;8.50;;;25.70;99.90;;;;;;5020993;28;20033;-76
2022/08/26 08:48:58;;;;;;;21.23;8.55;;;25.80;99.90;;;;;;5024535;28;20044;-76
2022/08/26 08:51:41;;;;;;;18.08;8.20;;;25.90;99.90;;;;;;5023360;28;20079;-76
2022/08/26 08:54:08;;;;;;;35.35;9.65;;;26.10;99.90;;;;;;5014675;28;20032;-76
2022/08/26 08:56:54;;;;;;;27.00;8.02;;;26.30;99.90;;;;;;5021977;28;20057;-76
2022/08/26 08:59:23;;;;;;;18.05;8.15;;;26.50;99.90;;;;;;5018203;28;20045;-76
2022/08/26 09:01:49;;;;;;;21.80;7.93;;;26.70;99.90;;;;;;5006325;28;20018;-76
2022/08/26 09:04:38;;;;;;;21.33;8.10;;;26.80;99.90;;;;;;5024944;28;20079;-76
2022/08/26 09:07:11;;;;;;;23.73;8.07;;;26.90;99.90;;;;;;5009211;28;20030;-77
2022/08/26 09:09:45;;;;;;;24.40;8.00;;;26.90;99.90;;;;;;5013513;28;20029;-76
2022/08/26 09:12:23;;;;;;;21.38;8.80;;;26.90;99.90;;;;;;5005801;28;20025;-76
2022/08/26 09:14:49;;;;;;;21.70;7.90;;;27.00;99.90;;;;;;5022097;28;20045;-76
2022/08/26 09:17:30;;;;;;;29.05;9.65;;;27.10;99.90;;;;;;5020924;28;20043;-76
2022/08/26 09:20:24;;;;;;;27.98;8.15;;;27.20;99.90;;;;;;5021117;28;20013;-76
2022/08/26 09:22:50;;;;;;;27.15;9.50;;;27.20;99.90;;;;;;5017617;28;20386;-76
2022/08/26 09:25:16;;;;;;;21.30;8.57;;;27.30;99.90;;;;;;5025387;28;20020;-76
2022/08/26 09:27:48;;;;;;;25.67;8.15;;;27.30;99.90;;;;;;5011726;28;20409;-76
2022/08/26 09:30:30;;;;;;;30.85;8.95;;;27.40;99.90;;;;;;5025654;28;20575;-76
2022/08/26 09:33:07;;;;;;;16.77;7.43;;;27.50;99.90;;;;;;5018471;28;20132;-76
2022/08/26 09:35:39;;;;;;;19.67;7.65;;;27.60;99.90;;;;;;5025417;28;20045;-77
2022/08/26 09:38:21;;;;;;;19.33;7.60;;;27.70;99.10;;;;;;5023188;28;20025;-77
2022/08/26 09:40:58;;;;;;;26.13;7.70;;;27.90;98.40;;;;;;5021613;28;20054;-77
2022/08/26 09:43:24;;;;;;;21.95;8.45;;;27.90;97.80;;;;;;5018570;28;20100;-76
2022/08/26 09:45:53;;;;;;;22.48;8.40;;;27.80;97.50;;;;;;5026861;28;20465;-77
2022/08/26 09:48:45;;;;;;;22.13;7.82;;;27.60;97.40;;;;;;5016927;28;20121;-77
2022/08/26 09:51:22;;;;;;;21.42;8.23;;;27.70;97.60;;;;;;5006352;28;20478;-76
2022/08/26 09:54:23;;;;;;;19.17;7.78;;;27.70;97.60;;;;;;5017493;28;20037;-76
2022/08/26 09:56:48;;;;;;;19.38;8.05;;;27.90;97.00;;;;;;4991014;28;20413;-77
2022/08/26 09:59:29;;;;;;;20.10;7.45;;;28.10;96.80;;;;;;5018020;28;20045;-77
2022/08/26 10:01:56;;;;;;;22.63;8.20;;;28.20;95.90;;;;;;5018753;28;20445;-77
2022/08/26 10:04:25;;;;;;;16.63;7.75;;;28.30;96.90;;;;;;5022174;28;20036;-77
2022/08/26 10:07:06;;;;;;;19.23;7.45;;;28.30;96.30;;;;;;5013108;28;20167;-77
2022/08/26 10:09:41;;;;;;;17.73;7.30;;;28.40;95.50;;;;;;4329000;28;10000909;-77
2022/08/26 10:12:13;;;;;;;85.70;9.40;;;28.50;95.30;;;;;;5029074;28;20036;-76
2022/08/26 10:14:50;;;;;;;17.90;6.65;;;28.60;93.20;;;;;;5028718;28;20433;-77
2022/08/26 10:17:21;;;;;;;19.40;7.10;;;28.40;92.20;;;;;;5033857;28;20521;-77
2022/08/26 10:20:16;;;;;;;19.15;7.55;;;28.50;92.60;;;;;;5052023;28;20437;-77
2022/08/26 10:22:58;;;;;;;16.67;7.28;;;28.50;92.40;;;;;;5010770;28;20022;-78
2022/08/26 10:25:30;;;;;;;16.15;6.85;;;28.40;92.10;;;;;;5043982;28;20044;-76
2022/08/26 10:28:11;;;;;;;24.17;6.72;;;28.30;91.50;;;;;;5038444;28;20138;-77
2022/08/26 10:30:43;;;;;;;18.58;6.78;;;28.20;91.90;;;;;;5040117;28;20045;-77
2022/08/26 10:33:13;;;;;;;17.98;6.30;;;28.20;91.50;;;;;;5035914;28;20040;-78
2022/08/26 10:35:49;;;;;;;16.58;6.63;;;28.30;91.10;;;;;;5027126;28;20091;-76
2022/08/26 10:38:20;;;;;;;14.90;6.30;;;28.50;89.70;;;;;;5038310;28;20386;-76
2022/08/26 10:41:05;;;;;;;15.63;6.72;;;28.60;88.90;;;;;;5024537;28;20525;-77
2022/08/26 10:43:59;;;;;;;20.63;6.60;;;28.80;88.90;;;;;;5015262;28;20401;-75
2022/08/26 10:46:38;;;;;;;11.30;6.13;;;29.00;88.20;;;;;;5008759;28;20040;-77
2022/08/26 10:49:16;;;;;;;17.45;6.22;;;29.00;87.20;;;;;;5019608;28;20499;-77
2022/08/26 10:52:09;;;;;;;16.30;5.70;;;28.90;86.10;;;;;;5014430;28;20086;-77
2022/08/26 10:54:52;;;;;;;8.90;5.60;;;29.00;86.30;;;;;;5016257;28;20029;-78
2022/08/26 10:58:03;;;;;;;9.38;5.30;;;29.20;83.60;;;;;;5010656;28;20025;-78
2022/08/26 11:03:52;;;;;;;10.05;4.60;;;29.70;77.90;;;;;;5007889;28;20056;-79
2022/08/26 11:06:18;;;;;;;13.60;5.22;;;29.80;76.80;;;;;;5014334;28;20251;-78
2022/08/26 11:08:48;;;;;;;9.80;5.10;;;29.90;74.00;;;;;;5010959;28;20477;-78
2022/08/26 11:11:38;;;;;;;10.40;5.75;;;30.00;76.30;;;;;;5016404;28;20687;-79
2022/08/26 11:14:08;;;;;;;12.38;5.22;;;30.20;75.90;;;;;;5009401;28;20160;-78
2022/08/26 11:16:38;;;;;;;12.50;5.43;;;30.40;74.80;;;;;;5015903;28;20036;-77
2022/08/26 11:19:05;;;;;;;11.65;5.18;;;30.40;71.90;;;;;;5010251;28;20026;-77
2022/08/26 11:21:47;;;;;;;7.75;5.85;;;30.40;71.20;;;;;;5016140;28;20390;-77
2022/08/26 11:25:05;;;;;;;9.27;4.80;;;30.60;71.00;;;;;;5017311;28;20472;-77
2022/08/26 11:27:37;;;;;;;9.52;4.82;;;30.70;70.90;;;;;;4992063;28;20414;-78
2022/08/26 11:30:11;;;;;;;12.47;5.20;;;30.70;70.40;;;;;;5016374;28;20096;-78
2022/08/26 11:32:37;;;;;;;9.90;5.43;;;30.70;71.30;;;;;;5010705;28;20033;-77
2022/08/26 11:35:05;;;;;;;12.25;5.22;;;30.50;70.60;;;;;;5009054;28;20585;-77
2022/08/26 11:37:44;;;;;;;8.93;4.97;;;30.30;70.30;;;;;;5013339;28;20084;-80
2022/08/26 11:40:16;;;;;;;9.02;5.70;;;30.10;71.50;;;;;;5015691;28;20030;-79
2022/08/26 11:43:05;;;;;;;14.10;5.72;;;29.90;71.80;;;;;;5006130;28;20096;-78
2022/08/26 11:45:38;;;;;;;9.52;5.53;;;29.50;72.50;;;;;;5015873;28;20048;-76
2022/08/26 11:48:31;;;;;;;8.48;5.05;;;29.40;73.10;;;;;;5017306;28;20492;-77
2022/08/26 11:51:03;;;;;;;6.85;5.20;;;29.30;72.80;;;;;;5013980;28;20049;-77
2022/08/26 11:53:31;;;;;;;8.02;4.95;;;29.40;72.50;;;;;;5010205;28;20048;-78
2022/08/26 11:56:00;;;;;;;11.60;5.03;;;29.50;72.40;;;;;;5014978;28;20034;-79
2022/08/26 11:58:27;;;;;;;9.07;5.50;;;29.50;72.70;;;;;;5016276;28;20116;-80
2022/08/26 12:00:59;;;;;;;10.40;5.20;;;29.50;72.40;;;;;;5012668;28;20053;-80
2022/08/26 12:03:38;;;;;;;10.60;5.15;;;29.50;72.00;;;;;;5020146;28;20080;-81
2022/08/26 12:06:21;;;;;;;9.02;5.32;;;29.40;72.50;;;;;;5012808;28;20087;-79
2022/08/26 12:08:47;;;;;;;8.68;5.55;;;29.40;71.40;;;;;;5003587;28;20101;-80
2022/08/26 12:11:22;;;;;;;8.35;5.25;;;29.20;71.00;;;;;;5007036;28;20049;-80
2022/08/26 12:14:14;;;;;;;13.32;5.07;;;29.20;70.90;;;;;;5012602;28;20037;-80
2022/08/26 12:16:40;;;;;;;8.27;4.95;;;29.20;69.70;;;;;;5010582;28;20034;-80
2022/08/26 12:19:28;;;;;;;8.02;5.20;;;29.20;70.00;;;;;;5011626;28;20041;-79
2022/08/26 12:22:09;;;;;;;12.23;4.88;;;29.20;69.60;;;;;;5009912;28;20253;-80
2022/08/26 12:24:35;;;;;;;6.13;4.93;;;29.20;68.50;;;;;;5020622;28;20110;-80
2022/08/26 12:27:15;;;;;;;7.72;4.70;;;29.20;68.40;;;;;;5019244;28;20596;-80
2022/08/26 12:29:40;;;;;;;10.07;5.68;;;29.30;68.60;;;;;;5018386;28;20026;-79
2022/08/26 12:32:16;;;;;;;10.15;6.07;;;29.40;69.50;;;;;;5009330;28;20028;-79
2022/08/26 12:34:43;;;;;;;11.48;5.80;;;29.50;71.70;;;;;;5017410;28;20159;-80
2022/08/26 12:37:11;;;;;;;7.75;6.07;;;29.70;72.60;;;;;;5027326;28;20087;-80
2022/08/26 12:39:40;;;;;;;8.18;5.78;;;29.70;72.70;;;;;;5019208;28;20037;-78
2022/08/26 12:42:11;;;;;;;10.70;6.10;;;29.80;71.40;;;;;;5014656;28;20026;-77
2022/08/26 12:44:42;;;;;;;8.68;6.60;;;29.80;71.20;;;;;;5018352;28;20017;-77
2022/08/26 12:47:14;;;;;;;12.32;6.90;;;29.90;70.10;;;;;;5022537;28;20044;-77
2022/08/26 12:49:42;;;;;;;11.10;7.00;;;30.00;71.80;;;;;;5021212;28;20404;-77
2022/08/26 12:52:28;;;;;;;15.60;7.50;;;30.00;70.80;;;;;;5015798;28;20058;-77
2022/08/26 12:54:59;;;;;;;19.42;8.38;;;30.00;72.30;;;;;;5021067;28;20037;-77
2022/08/26 12:57:33;;;;;;;10.45;7.53;;;30.10;72.50;;;;;;5021327;28;20105;-76
2022/08/26 13:00:38;;;;;;;11.82;7.25;;;30.20;71.80;;;;;;5020701;28;20276;-77